Latest Weather Observations for North Head

IDN60901

Issued at 4:21 am EDT Saturday 20 December 2014 (issued every 10 minutes, with the page automatically refreshed every 10 minutes)

About weather observations | Map of Sydney area stations | Latest observations for Sydney area | Other Formats
Station Details ID: 066197 Name: NORTH HEAD Lat: -33.82 Lon: 151.30 Height: 90.0 m
Data from the previous 72 hours. | See also: Recent months for locations in New South Wales
Date/Time
EDT
Tmp

°C
App
Tmp
°C
Dew
Point
°C
Rel
Hum
%
Delta-T

°C
Wind Press
QNH
hPa
Press
MSL
hPa
Rain
since
9 am
mm
Dir
 
Spd
km/h
Gust
km/h
Spd
kts
Gust
kts
20/04:00am - - - - - SE 9 17 5 9 - - -
20/03:30am - - - - - SSE 13 19 7 10 - - -
20/03:00am - - - - - SE 9 19 5 10 - - -
20/02:30am - - - - - SE 13 20 7 11 - - -
20/02:00am - - - - - SSE 13 20 7 11 - - -
20/01:30am - - - - - SE 13 17 7 9 - - -
20/01:00am - - - - - SSE 13 20 7 11 - - -
20/12:30am - - - - - SSE 13 20 7 11 - - -
 
Date/Time
EDT
Tmp

°C
App
Tmp
°C
Dew
Point
°C
Rel
Hum
%
Delta-T

°C
Wind Press
QNH
hPa
Press
MSL
hPa
Rain
since
9 am
mm
Dir
 
Spd
km/h
Gust
km/h
Spd
kts
Gust
kts
19/11:30pm - - - - - SSE 19 24 10 13 - - -
19/11:00pm - - - - - SSE 17 24 9 13 - - -
19/10:30pm - - - - - SSE 19 28 10 15 - - -
19/10:00pm - - - - - SSE 20 30 11 16 - - -
19/09:30pm - - - - - SSE 20 30 11 16 - - -
19/09:00pm - - - - - SSE 20 33 11 18 - - -
19/08:30pm - - - - - SSE 20 30 11 16 - - -
19/08:00pm - - - - - SSE 20 30 11 16 - - -
19/07:30pm - - - - - SSE 20 28 11 15 - - -
19/07:00pm - - - - - SSE 19 32 10 17 - - -
19/06:30pm - - - - - SSE 22 30 12 16 - - -
19/06:00pm - - - - - SSE 24 32 13 17 - - -
19/05:30pm - - - - - SE 19 28 10 15 - - -
19/05:00pm - - - - - SSE 22 32 12 17 - - -
19/04:30pm - - - - - SSE 24 32 13 17 - - -
19/04:00pm - - - - - SSE 24 33 13 18 - - -
19/03:30pm - - - - - SSE 24 33 13 18 - - -
19/03:00pm - - - - - SSE 24 35 13 19 - - -
19/02:30pm - - - - - SSE 22 32 12 17 - - -
19/02:00pm - - - - - SSE 22 32 12 17 - - -
19/01:30pm - - - - - SSE 24 33 13 18 - - -
19/01:00pm - - - - - SSE 24 33 13 18 - - -
19/12:30pm - - - - - SSE 24 33 13 18 - - -
19/12:00pm - - - - - SSE 24 33 13 18 - - -
19/11:30am - - - - - SSE 24 35 13 19 - - -
19/11:00am - - - - - SSE 26 35 14 19 - - -
19/10:30am - - - - - S 24 37 13 20 - - -
19/10:00am - - - - - SSE 26 41 14 22 - - -
19/09:30am - - - - - S 24 37 13 20 - - -
19/09:00am - - - - - S 26 39 14 21 - - -
19/08:30am - - - - - S 28 43 15 23 - - -
19/08:00am - - - - - S 32 46 17 25 - - -
19/07:49am - - - - - S 28 46 15 25 - - -
19/07:30am - - - - - S 32 48 17 26 - - -
19/07:13am - - - - - S 32 54 17 29 - - -
19/07:00am - - - - - S 33 48 18 26 - - -
19/06:43am - - - - - S 33 52 18 28 - - -
19/06:30am - - - - - S 33 52 18 28 - - -
19/06:00am - - - - - S 28 48 15 26 - - -
19/05:32am - - - - - S 28 50 15 27 - - -
19/05:30am - - - - - S 26 50 14 27 - - -
19/05:28am - - - - - S 28 50 15 27 - - -
19/05:00am - - - - - SSW 26 46 14 25 - - -
19/04:30am - - - - - SSW 28 48 15 26 - - -
19/04:13am - - - - - SW 26 46 14 25 - - -
19/04:00am - - - - - WSW 20 28 11 15 - - -
19/03:30am - - - - - W 13 19 7 10 - - -
19/03:00am - - - - - WSW 9 15 5 8 - - -
19/02:30am - - - - - W 13 22 7 12 - - -
19/02:00am - - - - - W 13 17 7 9 - - -
19/01:30am - - - - - W 11 15 6 8 - - -
19/01:00am - - - - - NNW 11 15 6 8 - - -
19/12:30am - - - - - NNW 11 15 6 8 - - -
19/12:00am - - - - - NNW 11 17 6 9 - - -
 
Date/Time
EDT
Tmp

°C
App
Tmp
°C
Dew
Point
°C
Rel
Hum
%
Delta-T

°C
Wind Press
QNH
hPa
Press
MSL
hPa
Rain
since
9 am
mm
Dir
 
Spd
km/h
Gust
km/h
Spd
kts
Gust
kts
18/11:30pm - - - - - N 11 15 6 8 - - -
18/11:00pm - - - - - N 15 19 8 10 - - -
18/10:30pm - - - - - NNE 15 20 8 11 - - -
18/10:00pm - - - - - N 15 20 8 11 - - -
18/09:30pm - - - - - N 11 17 6 9 - - -
18/09:00pm - - - - - NNE 13 19 7 10 - - -
18/08:30pm - - - - - NNE 13 19 7 10 - - -
18/08:00pm - - - - - NNE 13 20 7 11 - - -
18/07:30pm - - - - - NE 13 20 7 11 - - -
18/07:00pm - - - - - NE 13 20 7 11 - - -
18/06:30pm - - - - - ENE 13 19 7 10 - - -
18/06:00pm - - - - - ENE 11 19 6 10 - - -
18/05:30pm - - - - - ENE 13 20 7 11 - - -
18/05:00pm - - - - - NE 13 20 7 11 - - -
18/04:30pm - - - - - NNE 13 19 7 10 - - -
18/04:00pm - - - - - ENE 11 15 6 8 - - -
18/03:30pm - - - - - ENE 7 13 4 7 - - -
18/03:00pm - - - - - ENE 9 17 5 9 - - -
18/02:30pm - - - - - ENE 9 15 5 8 - - -
18/02:00pm - - - - - ENE 9 15 5 8 - - -
18/01:30pm - - - - - ESE 7 9 4 5 - - -
18/01:00pm - - - - - SE 6 9 3 5 - - -
18/12:30pm - - - - - SE 4 7 2 4 - - -
18/12:00pm - - - - - SE 6 9 3 5 - - -
18/11:30am - - - - - S 4 7 2 4 - - -
18/11:00am - - - - - SW 6 9 3 5 - - -
18/10:30am - - - - - SW 7 11 4 6 - - -
18/10:00am - - - - - SW 7 11 4 6 - - -
18/09:30am - - - - - W 7 11 4 6 - - -
18/09:00am - - - - - W 7 9 4 5 - - -
18/08:30am - - - - - WSW 9 13 5 7 - - -
18/08:00am - - - - - WSW 9 13 5 7 - - -
18/07:30am - - - - - WNW 9 13 5 7 - - -
18/07:00am - - - - - W 6 11 3 6 - - -
18/06:30am - - - - - CALM 0 0 0 0 - - -
18/06:00am - - - - - ENE 7 17 4 9 - - -
18/05:30am - - - - - NE 6 9 3 5 - - -
18/05:00am - - - - - E 7 11 4 6 - - -
18/04:30am - - - - - ESE 6 9 3 5 - - -
18/04:00am - - - - - ESE 9 15 5 8 - - -
18/03:30am - - - - - ESE 7 9 4 5 - - -
18/03:00am - - - - - E 7 11 4 6 - - -
18/02:30am - - - - - E 6 9 3 5 - - -
18/02:00am - - - - - E 9 15 5 8 - - -
18/01:30am - - - - - ESE 11 17 6 9 - - -
18/01:00am - - - - - E 11 17 6 9 - - -
18/12:30am - - - - - ENE 7 13 4 7 - - -
18/12:00am - - - - - ENE 9 13 5 7 - - -
 
Date/Time
EDT
Tmp

°C
App
Tmp
°C
Dew
Point
°C
Rel
Hum
%
Delta-T

°C
Wind Press
QNH
hPa
Press
MSL
hPa
Rain
since
9 am
mm
Dir
 
Spd
km/h
Gust
km/h
Spd
kts
Gust
kts
17/11:30pm - - - - - CALM 0 2 0 1 - - -
17/11:00pm - - - - - SSE 2 4 1 2 - - -
17/10:30pm - - - - - E 6 9 3 5 - - -
17/10:00pm - - - - - ENE 6 9 3 5 - - -
17/09:30pm - - - - - ESE 7 15 4 8 - - -
17/09:00pm - - - - - ESE 11 17 6 9 - - -
17/08:30pm - - - - - SE 11 19 6 10 - - -
17/08:00pm - - - - - ESE 13 22 7 12 - - -
17/07:30pm - - - - - SE 15 28 8 15 - - -
17/07:00pm - - - - - SE 15 24 8 13 - - -
17/06:30pm - - - - - SE 17 32 9 17 - - -
17/06:00pm - - - - - SE 17 28 9 15 - - -
17/05:30pm - - - - - SE 19 26 10 14 - - -
17/05:00pm - - - - - SSE 17 24 9 13 - - -
17/04:30pm - - - - - SSE 19 28 10 15 - - -
17/04:00pm - - - - - SE 15 24 8 13 - - -
17/03:30pm - - - - - SSE 20 32 11 17 - - -
17/03:00pm - - - - - SE 19 30 10 16 - - -
17/02:30pm - - - - - SE 20 32 11 17 - - -
17/02:00pm - - - - - SSE 24 33 13 18 - - -
17/01:30pm - - - - - SSE 24 33 13 18 - - -
17/01:00pm - - - - - SSE 24 32 13 17 - - -
17/12:30pm - - - - - SSE 22 32 12 17 - - -
17/12:00pm - - - - - SSE 26 35 14 19 - - -
17/11:30am - - - - - SSE 24 33 13 18 - - -
17/11:00am - - - - - SSE 22 32 12 17 - - -
17/10:30am - - - - - SSE 26 39 14 21 - - -
17/10:00am - - - - - S 26 43 14 23 - - -
17/09:30am - - - - - SSE 28 44 15 24 - - -
17/09:10am - - - - - SSE 30 48 16 26 - - -
17/09:00am - - - - - SSE 32 46 17 25 - - -
17/08:50am - - - - - SSE 32 52 17 28 - - -
17/08:30am - - - - - SSE 30 43 16 23 - - -
17/08:00am - - - - - S 30 44 16 24 - - -
17/07:30am - - - - - S 32 52 17 28 - - -
17/07:00am - - - - - S 30 50 16 27 - - -
17/06:30am - - - - - S 35 56 19 30 - - -
17/06:00am - - - - - S 32 54 17 29 - - -
17/05:30am - - - - - S 30 50 16 27 - - -
17/05:00am - - - - - S 30 57 16 31 - - -
17/04:59am - - - - - S 28 50 15 27 - - -
17/04:57am - - - - - S 26 43 14 23 - - -
17/04:30am - - - - - WSW 17 22 9 12 - - -

Latest Capital City Observations: Canberra | Sydney | Melbourne | Brisbane | Adelaide | Perth | Hobart | Darwin

Other Formats:

Comma delimited format used in spreadsheet applications
http://www.bom.gov.au/fwo/IDN60901/IDN60901.95768.axf

JavaScript Object Notation format (JSON) in row-major order
http://www.bom.gov.au/fwo/IDN60901/IDN60901.95768.json